Time;durP1;ratioP1;P1;durP2;ratioP2;P2;SDS_P1;SDS_P2;PMS_P1;PMS_P2;Temp;Humidity;BMP_temperature;BMP_pressure;BME280_temperature;BME280_humidity;BME280_pressure;Samples;Min_cycle;Max_cycle;Signal;HPM_P1;HPM_P2
2023/12/02 00:01:54;;;;;;;46.08;29.00;;;-0.90;99.90;;;;;;7378129;19;20018;-59
2023/12/02 00:04:20;;;;;;;46.90;28.42;;;-0.90;99.90;;;;;;7373312;19;20089;-59
2023/12/02 00:06:46;;;;;;;52.15;27.98;;;-0.90;99.90;;;;;;7376490;19;20029;-61
2023/12/02 00:09:13;;;;;;;46.78;28.33;;;-0.90;99.90;;;;;;7377014;19;20022;-60
2023/12/02 00:11:39;;;;;;;48.88;29.30;;;-0.90;99.90;;;;;;7375073;19;20023;-62
2023/12/02 00:14:05;;;;;;;48.92;27.90;;;-0.90;99.90;;;;;;7371061;19;20026;-61
2023/12/02 00:16:32;;;;;;;47.10;28.05;;;-0.90;99.90;;;;;;7374346;19;20207;-60
2023/12/02 00:19:18;;;;;;;47.00;26.38;;;-0.90;99.90;;;;;;7375553;19;20041;-61
2023/12/02 00:21:44;;;;;;;44.85;28.63;;;-0.80;99.90;;;;;;7375506;19;20023;-60
2023/12/02 00:24:10;;;;;;;46.55;29.83;;;-0.80;99.90;;;;;;7376806;19;20035;-61
2023/12/02 00:26:36;;;;;;;48.97;28.58;;;-0.90;99.90;;;;;;7370302;19;20014;-61
2023/12/02 00:29:23;;;;;;;42.42;27.55;;;-0.90;99.90;;;;;;7372446;19;20030;-61
2023/12/02 00:32:09;;;;;;;48.67;28.90;;;-0.90;99.90;;;;;;7374715;19;20056;-60
2023/12/02 00:34:36;;;;;;;49.35;29.83;;;-0.80;99.90;;;;;;7372454;19;20030;-60
2023/12/02 00:37:02;;;;;;;48.80;27.70;;;-0.90;99.90;;;;;;7379685;19;20022;-61
2023/12/02 00:39:29;;;;;;;48.25;30.15;;;-0.90;99.90;;;;;;7372735;19;21697;-61
2023/12/02 00:41:55;;;;;;;51.97;29.05;;;-0.90;99.90;;;;;;7380050;19;20077;-61
2023/12/02 00:44:21;;;;;;;48.45;29.23;;;-0.90;99.90;;;;;;7371779;19;20490;-60
2023/12/02 00:46:48;;;;;;;48.63;28.50;;;-0.90;99.90;;;;;;7380217;19;20015;-61
2023/12/02 00:49:14;;;;;;;51.47;30.40;;;-0.90;99.90;;;;;;7373998;19;20036;-61
2023/12/02 00:51:41;;;;;;;50.10;31.83;;;-0.90;99.90;;;;;;7373105;19;20014;-60
2023/12/02 00:54:08;;;;;;;42.83;27.40;;;-1.00;99.90;;;;;;7376163;19;20018;-61
2023/12/02 00:56:34;;;;;;;45.25;28.50;;;-1.00;99.90;;;;;;7375254;19;20847;-61
2023/12/02 00:59:00;;;;;;;48.75;29.25;;;-1.00;99.90;;;;;;7374742;19;20474;-58
2023/12/02 01:01:27;;;;;;;51.70;29.08;;;-1.00;99.90;;;;;;7373013;19;20046;-59
2023/12/02 01:03:53;;;;;;;46.47;30.17;;;-1.10;99.90;;;;;;7376407;19;20026;-60
2023/12/02 01:06:19;;;;;;;43.97;27.38;;;-1.10;99.90;;;;;;7372729;19;20085;-58
2023/12/02 01:08:46;;;;;;;46.15;27.92;;;-1.10;99.90;;;;;;7375677;19;20025;-61
2023/12/02 01:11:12;;;;;;;44.95;27.98;;;-1.10;99.90;;;;;;7376702;19;20714;-60
2023/12/02 01:13:38;;;;;;;47.63;27.70;;;-1.10;99.90;;;;;;7375615;19;20363;-59
2023/12/02 01:16:05;;;;;;;48.40;28.35;;;-1.10;99.90;;;;;;7376096;19;20010;-59
2023/12/02 01:18:31;;;;;;;47.75;28.77;;;-1.20;99.90;;;;;;7375019;19;20287;-61
2023/12/02 01:20:58;;;;;;;49.58;29.25;;;-1.20;99.90;;;;;;7374796;19;20802;-60
2023/12/02 01:23:24;;;;;;;54.35;29.95;;;-1.20;99.90;;;;;;7372249;19;20026;-59
2023/12/02 01:25:50;;;;;;;46.60;28.67;;;-1.20;99.90;;;;;;7375427;19;20018;-59
2023/12/02 01:28:17;;;;;;;51.03;27.92;;;-1.10;99.90;;;;;;7372320;19;20019;-59
2023/12/02 01:30:43;;;;;;;47.85;29.00;;;-1.10;99.90;;;;;;7375279;19;20036;-59
2023/12/02 01:33:15;;;;;;;49.30;28.10;;;-1.10;99.90;;;;;;7363516;19;20019;-59
2023/12/02 01:35:42;;;;;;;52.70;29.92;;;-1.10;99.90;;;;;;7372903;19;20026;-60
2023/12/02 01:38:08;;;;;;;53.78;30.40;;;-1.00;99.90;;;;;;7372799;19;20078;-59
2023/12/02 01:40:35;;;;;;;54.28;31.13;;;-1.00;99.90;;;;;;7374461;19;20021;-59
2023/12/02 01:43:03;;;;;;;53.72;30.77;;;-1.00;99.90;;;;;;7374610;19;20022;-59
2023/12/02 01:45:29;;;;;;;51.05;31.05;;;-1.00;99.90;;;;;;7374480;19;20356;-58
2023/12/02 01:47:59;;;;;;;50.70;29.55;;;-1.00;99.90;;;;;;7375455;19;20049;-59
2023/12/02 01:50:25;;;;;;;48.60;29.38;;;-1.00;99.90;;;;;;7373566;19;20654;-59
2023/12/02 01:52:52;;;;;;;52.75;30.75;;;-1.00;99.90;;;;;;7376275;19;20047;-59
2023/12/02 01:55:18;;;;;;;49.63;29.45;;;-1.00;99.90;;;;;;7374056;19;20015;-61
2023/12/02 01:57:45;;;;;;;50.72;28.60;;;-1.00;99.90;;;;;;7375958;19;20018;-61
2023/12/02 02:00:13;;;;;;;48.63;30.30;;;-0.90;99.90;;;;;;7371971;19;20026;-61
2023/12/02 02:02:40;;;;;;;50.35;30.35;;;-0.90;99.90;;;;;;7372588;19;20019;-61
2023/12/02 02:05:06;;;;;;;43.35;27.95;;;-0.90;99.90;;;;;;7373481;19;20038;-61
2023/12/02 02:07:33;;;;;;;46.30;27.20;;;-0.90;99.90;;;;;;7376401;19;20018;-61
2023/12/02 02:10:00;;;;;;;44.78;28.85;;;-0.90;99.90;;;;;;7371753;19;20478;-59
2023/12/02 02:12:27;;;;;;;48.40;27.75;;;-0.90;99.90;;;;;;7368233;19;20522;-59
2023/12/02 02:15:13;;;;;;;42.13;27.23;;;-0.90;99.90;;;;;;7365555;19;20026;-59
2023/12/02 02:17:40;;;;;;;42.30;27.55;;;-0.90;99.90;;;;;;7368822;19;20015;-60
2023/12/02 02:20:09;;;;;;;46.63;29.02;;;-0.90;99.90;;;;;;7373403;19;20018;-61
2023/12/02 02:22:35;;;;;;;44.70;27.88;;;-0.90;99.90;;;;;;7369796;19;20067;-61
2023/12/02 02:25:02;;;;;;;44.90;28.00;;;-0.90;99.90;;;;;;7372818;19;20011;-61
2023/12/02 02:27:29;;;;;;;44.90;27.58;;;-0.90;99.90;;;;;;7370183;19;20588;-59
2023/12/02 02:29:55;;;;;;;43.88;27.30;;;-0.90;99.90;;;;;;7372468;19;20021;-59
2023/12/02 02:32:21;;;;;;;48.58;30.20;;;-0.90;99.90;;;;;;7371114;19;20671;-59
2023/12/02 02:34:48;;;;;;;44.78;27.25;;;-0.90;99.90;;;;;;7372022;19;20470;-60
2023/12/02 02:37:15;;;;;;;44.42;27.35;;;-0.90;99.90;;;;;;7372966;19;20056;-61
2023/12/02 02:39:43;;;;;;;41.72;26.20;;;-0.90;99.90;;;;;;7374235;19;20022;-59
2023/12/02 02:42:30;;;;;;;48.20;28.30;;;-0.90;99.90;;;;;;7372417;19;20026;-59
2023/12/02 02:44:57;;;;;;;44.33;28.23;;;-0.80;99.90;;;;;;7376348;19;20078;-59
2023/12/02 02:47:23;;;;;;;43.88;28.70;;;-0.80;99.90;;;;;;7372269;19;20397;-60
2023/12/02 02:49:49;;;;;;;41.67;26.15;;;-0.80;99.90;;;;;;7373593;19;20494;-60
2023/12/02 02:52:15;;;;;;;44.75;27.35;;;-0.80;99.90;;;;;;7370851;19;20612;-60
2023/12/02 02:54:43;;;;;;;41.08;26.58;;;-0.80;99.90;;;;;;7375703;19;20018;-60
2023/12/02 02:57:09;;;;;;;45.33;27.75;;;-0.80;99.90;;;;;;7374089;19;20023;-59
2023/12/02 02:59:35;;;;;;;41.78;27.45;;;-0.80;99.90;;;;;;7375053;19;20023;-59
2023/12/02 03:02:02;;;;;;;43.22;27.40;;;-0.80;99.90;;;;;;7373509;19;20452;-60
2023/12/02 03:04:29;;;;;;;42.92;25.92;;;-0.80;99.90;;;;;;7374562;19;20104;-60
2023/12/02 03:06:55;;;;;;;44.55;28.08;;;-0.80;99.90;;;;;;7375892;19;20094;-61
2023/12/02 03:09:21;;;;;;;42.58;26.48;;;-0.80;99.90;;;;;;7374670;19;20043;-61
2023/12/02 03:11:49;;;;;;;38.00;25.92;;;-0.80;99.90;;;;;;7370784;19;20043;-60
2023/12/02 03:14:15;;;;;;;40.30;26.25;;;-0.80;99.90;;;;;;7376125;19;20018;-59
2023/12/02 03:17:01;;;;;;;40.10;24.70;;;-0.80;99.90;;;;;;7381067;19;20370;-59
2023/12/02 03:19:48;;;;;;;42.08;25.77;;;-0.80;99.90;;;;;;7382209;19;20014;-59
2023/12/02 03:22:15;;;;;;;40.70;25.90;;;-0.80;99.90;;;;;;7375836;19;20450;-59
2023/12/02 03:24:44;;;;;;;42.85;27.80;;;-0.80;99.90;;;;;;7378536;19;20010;-61
2023/12/02 03:27:11;;;;;;;44.08;27.17;;;-0.80;99.90;;;;;;7379616;19;20433;-59
2023/12/02 03:29:37;;;;;;;42.58;25.92;;;-0.80;99.90;;;;;;7382093;19;20014;-61
2023/12/02 03:32:04;;;;;;;42.15;26.08;;;-0.80;99.90;;;;;;7375922;19;20019;-60
2023/12/02 03:34:30;;;;;;;40.33;25.77;;;-0.80;99.90;;;;;;7380354;19;20035;-62
2023/12/02 03:36:57;;;;;;;40.67;26.27;;;-0.80;99.90;;;;;;7381890;19;20434;-61
2023/12/02 03:39:43;;;;;;;39.47;25.40;;;-0.70;99.90;;;;;;7379320;19;20014;-61
2023/12/02 03:42:09;;;;;;;41.40;25.02;;;-0.70;99.90;;;;;;7380304;19;20616;-62
2023/12/02 03:44:35;;;;;;;38.17;25.35;;;-0.80;99.90;;;;;;7380704;19;20121;-61
2023/12/02 03:47:03;;;;;;;40.72;25.33;;;-0.70;99.90;;;;;;7382980;19;20022;-61
2023/12/02 03:49:29;;;;;;;41.33;25.55;;;-0.80;99.90;;;;;;7379638;19;20916;-61
2023/12/02 03:51:56;;;;;;;42.85;25.75;;;-0.80;99.90;;;;;;7378090;19;20467;-61
2023/12/02 03:54:22;;;;;;;38.97;24.42;;;-0.80;99.90;;;;;;7377579;19;20107;-61
2023/12/02 03:56:49;;;;;;;40.08;25.08;;;-0.80;99.90;;;;;;7379509;19;20106;-61
2023/12/02 03:59:15;;;;;;;37.67;24.13;;;-0.80;99.90;;;;;;7378495;19;20029;-60
2023/12/02 04:01:42;;;;;;;36.40;25.50;;;-0.80;99.90;;;;;;7382843;19;20022;-59
2023/12/02 04:04:08;;;;;;;41.40;26.02;;;-0.80;99.90;;;;;;7379547;19;20380;-60
2023/12/02 04:06:34;;;;;;;37.97;24.13;;;-0.80;99.90;;;;;;7380966;19;20089;-61
2023/12/02 04:09:01;;;;;;;36.80;24.63;;;-0.80;99.90;;;;;;7379589;19;20022;-62
2023/12/02 04:11:27;;;;;;;36.15;24.20;;;-0.70;99.90;;;;;;7377164;19;20019;-61
2023/12/02 04:13:53;;;;;;;35.55;22.50;;;-0.80;99.90;;;;;;7379617;19;20101;-61
2023/12/02 04:16:19;;;;;;;35.80;23.50;;;-0.70;99.90;;;;;;7376347;19;20015;-61
2023/12/02 04:18:46;;;;;;;35.58;23.92;;;-0.70;99.90;;;;;;7380984;19;20014;-62
2023/12/02 04:21:12;;;;;;;39.28;25.95;;;-0.70;99.90;;;;;;7379108;19;20043;-60
2023/12/02 04:23:38;;;;;;;37.38;24.58;;;-0.70;99.90;;;;;;7380915;19;20101;-59
2023/12/02 04:26:06;;;;;;;41.70;25.80;;;-0.80;99.90;;;;;;7377593;19;20019;-60
2023/12/02 04:28:33;;;;;;;35.78;23.35;;;-0.80;99.90;;;;;;7379680;19;20018;-60
2023/12/02 04:31:19;;;;;;;40.33;24.50;;;-0.80;99.90;;;;;;7377347;19;20018;-59
2023/12/02 04:33:46;;;;;;;40.97;24.63;;;-0.90;99.90;;;;;;7379164;19;20019;-60
2023/12/02 04:36:12;;;;;;;34.92;24.45;;;-0.90;99.90;;;;;;7375134;19;20058;-59
2023/12/02 04:38:38;;;;;;;41.70;25.90;;;-0.80;99.90;;;;;;7378494;19;20041;-59
2023/12/02 04:41:05;;;;;;;41.45;25.80;;;-0.90;99.90;;;;;;7376801;19;20018;-61
2023/12/02 04:43:51;;;;;;;40.25;24.70;;;-0.80;99.90;;;;;;7378562;19;20057;-61
2023/12/02 04:46:17;;;;;;;43.50;26.30;;;-0.80;99.90;;;;;;7373553;19;20018;-61
2023/12/02 04:48:44;;;;;;;43.92;26.88;;;-0.80;99.90;;;;;;7379098;19;20463;-62
2023/12/02 04:51:10;;;;;;;41.35;26.33;;;-0.80;99.90;;;;;;7376099;19;20792;-61
2023/12/02 04:53:38;;;;;;;40.25;25.98;;;-0.80;99.90;;;;;;7380392;19;20019;-62
2023/12/02 04:56:05;;;;;;;43.05;26.75;;;-0.80;99.90;;;;;;7377521;19;20481;-61
2023/12/02 04:58:32;;;;;;;42.95;26.58;;;-0.80;99.90;;;;;;7376334;19;20015;-61
2023/12/02 05:00:58;;;;;;;39.78;25.30;;;-0.80;99.90;;;;;;7374803;19;20021;-62
2023/12/02 05:03:24;;;;;;;39.25;25.52;;;-0.80;99.90;;;;;;7375553;19;20108;-61
2023/12/02 05:05:50;;;;;;;42.97;25.00;;;-0.70;99.90;;;;;;7376838;19;20022;-62
2023/12/02 05:08:17;;;;;;;43.33;27.00;;;-0.70;99.90;;;;;;7374172;19;20078;-62
2023/12/02 05:10:43;;;;;;;42.33;26.30;;;-0.70;99.90;;;;;;7378304;19;20762;-62
2023/12/02 05:13:09;;;;;;;45.22;28.27;;;-0.70;99.90;;;;;;7374576;19;20015;-62
2023/12/02 05:15:35;;;;;;;46.30;28.20;;;-0.80;99.90;;;;;;7374709;19;20106;-62
2023/12/02 05:18:02;;;;;;;44.45;27.08;;;-0.70;99.90;;;;;;7379547;19;20018;-62
2023/12/02 05:20:28;;;;;;;42.20;27.63;;;-0.70;99.90;;;;;;7378846;19;20022;-61
2023/12/02 05:22:55;;;;;;;45.20;26.67;;;-0.70;99.90;;;;;;7376650;19;20109;-62
2023/12/02 05:25:21;;;;;;;39.47;25.63;;;-0.70;99.90;;;;;;7378019;19;20029;-60
2023/12/02 05:27:47;;;;;;;40.08;25.33;;;-0.70;99.90;;;;;;7375340;19;20068;-60
2023/12/02 05:30:14;;;;;;;47.08;26.63;;;-0.70;99.90;;;;;;7375250;19;20010;-60
2023/12/02 05:32:40;;;;;;;42.90;26.75;;;-0.70;99.90;;;;;;7372725;19;20022;-60
2023/12/02 05:35:11;;;;;;;43.92;28.08;;;-0.70;99.90;;;;;;7374881;19;20036;-62
2023/12/02 05:37:39;;;;;;;44.33;27.15;;;-0.70;99.90;;;;;;7371131;19;20026;-62
2023/12/02 05:40:08;;;;;;;42.58;25.77;;;-0.70;99.90;;;;;;7379295;19;20074;-62
2023/12/02 05:42:34;;;;;;;48.28;28.50;;;-0.70;99.90;;;;;;7375886;19;20046;-62
2023/12/02 05:45:00;;;;;;;46.67;27.08;;;-0.70;99.90;;;;;;7374949;19;20014;-62
2023/12/02 05:47:26;;;;;;;44.90;27.27;;;-0.70;99.90;;;;;;7377328;19;20018;-62
2023/12/02 05:49:52;;;;;;;50.00;29.15;;;-0.70;99.90;;;;;;7377032;19;20049;-62
2023/12/02 05:52:20;;;;;;;46.35;26.85;;;-0.70;99.90;;;;;;7374205;19;20024;-62
2023/12/02 05:54:47;;;;;;;43.40;27.23;;;-0.70;99.90;;;;;;7373843;19;20015;-60
2023/12/02 05:57:13;;;;;;;46.78;27.63;;;-0.60;99.90;;;;;;7376214;19;20498;-60
2023/12/02 05:59:40;;;;;;;44.78;26.85;;;-0.70;99.90;;;;;;7375767;19;20431;-61
2023/12/02 06:02:07;;;;;;;39.67;25.48;;;-0.70;99.90;;;;;;7373113;19;20050;-63
2023/12/02 06:04:34;;;;;;;44.03;27.30;;;-0.70;99.90;;;;;;7373159;19;20050;-62
2023/12/02 06:07:00;;;;;;;44.88;27.55;;;-0.60;99.90;;;;;;7375120;19;20022;-62
2023/12/02 06:09:26;;;;;;;43.92;27.67;;;-0.70;99.90;;;;;;7373546;19;20010;-62
2023/12/02 06:11:52;;;;;;;45.20;27.77;;;-0.70;99.90;;;;;;7374492;19;20380;-62
2023/12/02 06:14:18;;;;;;;47.20;27.23;;;-0.70;99.90;;;;;;7374085;19;20024;-62
2023/12/02 06:16:45;;;;;;;42.17;28.00;;;-0.70;99.90;;;;;;7376193;19;20022;-62
2023/12/02 06:19:11;;;;;;;46.28;26.90;;;-0.60;99.90;;;;;;7373077;19;20021;-61
2023/12/02 06:21:38;;;;;;;43.35;27.70;;;-0.60;99.90;;;;;;7372117;19;20026;-60
2023/12/02 06:24:05;;;;;;;45.05;27.02;;;-0.60;99.90;;;;;;7374849;19;20486;-60
2023/12/02 06:26:31;;;;;;;47.08;28.40;;;-0.60;99.90;;;;;;7370602;19;20625;-61
2023/12/02 06:28:57;;;;;;;43.25;28.20;;;-0.60;99.90;;;;;;7376234;19;20022;-62
2023/12/02 06:31:24;;;;;;;49.30;28.25;;;-0.60;99.90;;;;;;7372848;19;20022;-62
2023/12/02 06:33:50;;;;;;;45.45;28.27;;;-0.60;99.90;;;;;;7376952;19;20565;-67
2023/12/02 06:36:16;;;;;;;40.28;26.40;;;-0.60;99.90;;;;;;7367808;19;20019;-62
2023/12/02 06:38:42;;;;;;;43.83;27.25;;;-0.60;99.90;;;;;;7371737;19;20026;-62
2023/12/02 06:41:09;;;;;;;42.30;26.05;;;-0.60;99.90;;;;;;7369903;19;20018;-62
2023/12/02 06:43:35;;;;;;;45.63;27.13;;;-0.70;99.90;;;;;;7371806;19;20018;-61
2023/12/02 06:46:02;;;;;;;41.88;25.90;;;-0.60;99.90;;;;;;7369624;19;20011;-60
2023/12/02 06:48:28;;;;;;;45.10;26.75;;;-0.70;99.90;;;;;;7375921;19;20049;-60
2023/12/02 06:50:55;;;;;;;45.30;27.88;;;-0.70;99.90;;;;;;7382888;19;21428;-60
2023/12/02 06:53:21;;;;;;;49.17;28.38;;;-0.70;99.90;;;;;;7380351;19;20018;-62
2023/12/02 06:55:48;;;;;;;44.22;26.90;;;-0.80;99.90;;;;;;7377615;19;20022;-62
2023/12/02 06:58:14;;;;;;;42.15;26.25;;;-0.80;99.90;;;;;;7381870;19;20018;-62
2023/12/02 07:00:41;;;;;;;43.50;25.40;;;-0.80;99.90;;;;;;7382472;19;20026;-61
2023/12/02 07:03:08;;;;;;;46.13;28.40;;;-0.80;99.90;;;;;;7383258;19;20043;-64
2023/12/02 07:05:35;;;;;;;46.65;26.73;;;-0.80;99.90;;;;;;7379600;19;20027;-62
2023/12/02 07:08:01;;;;;;;44.53;27.20;;;-0.80;99.90;;;;;;7380250;19;20509;-62
2023/12/02 07:10:28;;;;;;;45.90;26.50;;;-0.80;99.90;;;;;;7379682;19;20018;-61
2023/12/02 07:12:54;;;;;;;46.55;26.52;;;-0.80;99.90;;;;;;7376475;19;20017;-62
2023/12/02 07:15:20;;;;;;;50.60;27.30;;;-0.90;99.90;;;;;;7378891;19;20022;-62
2023/12/02 07:17:46;;;;;;;42.17;25.38;;;-0.90;99.90;;;;;;7382328;19;20418;-62
2023/12/02 07:20:14;;;;;;;46.50;26.55;;;-0.90;99.90;;;;;;7379110;19;20015;-62
2023/12/02 07:22:40;;;;;;;44.90;26.08;;;-0.90;99.90;;;;;;7380382;19;20022;-61
2023/12/02 07:25:07;;;;;;;42.80;26.67;;;-0.90;99.90;;;;;;7381546;19;20351;-61
2023/12/02 07:27:33;;;;;;;47.72;27.90;;;-1.00;99.90;;;;;;7372368;19;20029;-61
2023/12/02 07:30:00;;;;;;;47.72;27.58;;;-0.90;99.90;;;;;;7380438;19;20359;-60
2023/12/02 07:32:26;;;;;;;44.67;26.08;;;-1.00;99.90;;;;;;7378594;19;20503;-59
2023/12/02 07:34:52;;;;;;;46.63;27.25;;;-1.00;99.90;;;;;;7382381;19;20015;-60
2023/12/02 07:37:18;;;;;;;50.53;27.73;;;-1.00;99.90;;;;;;7377289;19;20053;-61
2023/12/02 07:39:45;;;;;;;46.83;26.58;;;-1.00;99.90;;;;;;7377522;19;20025;-61
2023/12/02 07:42:12;;;;;;;46.85;26.60;;;-1.00;99.90;;;;;;7373048;19;20025;-62
2023/12/02 07:44:38;;;;;;;43.65;27.10;;;-1.00;99.90;;;;;;7377357;19;20018;-61
2023/12/02 07:47:04;;;;;;;47.13;27.20;;;-1.00;99.90;;;;;;7380471;19;20015;-61
2023/12/02 07:49:30;;;;;;;45.17;27.75;;;-1.00;99.90;;;;;;7378969;19;20023;-61
2023/12/02 07:51:57;;;;;;;44.97;27.80;;;-1.00;99.90;;;;;;7379473;19;20022;-61
2023/12/02 07:54:23;;;;;;;46.67;27.48;;;-1.00;99.90;;;;;;7377291;19;20092;-61
2023/12/02 07:56:49;;;;;;;46.40;27.27;;;-1.00;99.90;;;;;;7377504;19;20026;-61
2023/12/02 07:59:16;;;;;;;46.50;28.60;;;-1.00;99.90;;;;;;7377230;19;20138;-62
2023/12/02 08:01:43;;;;;;;44.92;27.30;;;-1.00;99.90;;;;;;7377810;19;20018;-61
2023/12/02 08:04:09;;;;;;;43.95;26.13;;;-0.90;99.90;;;;;;7380165;19;20416;-61
2023/12/02 08:06:36;;;;;;;44.67;26.55;;;-0.90;99.90;;;;;;7379057;19;20014;-61
2023/12/02 08:09:02;;;;;;;41.65;26.30;;;-0.90;99.90;;;;;;7380713;19;20801;-61
2023/12/02 08:11:29;;;;;;;50.95;27.88;;;-0.90;99.90;;;;;;7376122;19;20021;-61
2023/12/02 08:13:55;;;;;;;41.92;27.05;;;-0.90;99.90;;;;;;7377180;19;20405;-61
2023/12/02 08:16:21;;;;;;;47.20;28.08;;;-0.80;99.90;;;;;;7379408;19;20715;-61
2023/12/02 08:18:47;;;;;;;42.25;25.40;;;-0.80;99.90;;;;;;7375355;19;20629;-61
2023/12/02 08:21:13;;;;;;;42.65;27.00;;;-0.80;99.90;;;;;;7376137;19;20373;-61
2023/12/02 08:23:40;;;;;;;48.95;27.13;;;-0.80;99.90;;;;;;7376408;19;20037;-61
2023/12/02 08:26:07;;;;;;;46.22;26.95;;;-0.80;99.90;;;;;;7380292;19;20030;-62
2023/12/02 08:28:33;;;;;;;44.60;26.70;;;-0.80;99.90;;;;;;7374728;19;20462;-59
2023/12/02 08:30:59;;;;;;;45.97;26.83;;;-0.80;99.90;;;;;;7378978;19;20018;-61
2023/12/02 08:33:26;;;;;;;43.60;25.00;;;-0.70;99.90;;;;;;7379063;19;20014;-61
2023/12/02 08:35:52;;;;;;;68.45;41.92;;;-0.70;99.90;;;;;;7378336;19;20018;-62
2023/12/02 08:38:18;;;;;;;44.55;26.60;;;-0.60;99.90;;;;;;7374000;19;20018;-62
2023/12/02 08:40:44;;;;;;;46.97;25.85;;;-0.60;99.90;;;;;;7377630;19;20097;-62
2023/12/02 08:43:13;;;;;;;43.60;26.98;;;-0.60;99.90;;;;;;7373122;19;20024;-61
2023/12/02 08:45:39;;;;;;;49.40;28.23;;;-0.60;99.90;;;;;;7376807;19;20824;-62
2023/12/02 08:48:06;;;;;;;44.58;27.77;;;-0.60;99.90;;;;;;7373154;19;20098;-61
2023/12/02 08:50:32;;;;;;;42.17;25.90;;;-0.50;99.90;;;;;;7376570;19;20132;-61
2023/12/02 08:52:58;;;;;;;44.55;26.45;;;-0.60;99.90;;;;;;7373108;19;20023;-62
2023/12/02 08:55:24;;;;;;;43.15;26.27;;;-0.50;99.90;;;;;;7376178;19;20485;-62
2023/12/02 08:58:11;;;;;;;46.53;26.60;;;-0.50;99.90;;;;;;7374017;19;20015;-62
2023/12/02 09:00:57;;;;;;;43.22;27.95;;;-0.40;99.90;;;;;;7376327;19;20026;-62
2023/12/02 09:03:24;;;;;;;46.22;26.70;;;-0.40;99.90;;;;;;7374384;19;20019;-62
2023/12/02 09:05:55;;;;;;;43.22;26.50;;;-0.40;99.90;;;;;;7375617;19;20023;-62
2023/12/02 09:08:21;;;;;;;39.35;25.02;;;-0.40;99.90;;;;;;7377784;19;20021;-62
2023/12/02 09:10:48;;;;;;;45.88;26.30;;;-0.30;99.90;;;;;;7374894;19;20022;-62
2023/12/02 09:13:32;;;;;;;45.70;27.08;;;-0.30;99.90;;;;;;7370672;19;20021;-62
2023/12/02 09:16:02;;;;;;;46.03;26.20;;;-0.30;99.90;;;;;;7375082;19;20366;-62
2023/12/02 09:18:36;;;;;;;44.00;26.95;;;-0.20;99.90;;;;;;7376216;19;20019;-62
2023/12/02 09:21:03;;;;;;;41.88;25.55;;;-0.10;99.90;;;;;;7374946;19;21129;-62
2023/12/02 09:23:31;;;;;;;47.00;27.98;;;-0.10;99.90;;;;;;7371370;19;20474;-62
2023/12/02 09:26:01;;;;;;;42.47;25.63;;;0.00;99.90;;;;;;7373908;19;20053;-62
2023/12/02 09:28:29;;;;;;;41.95;25.67;;;0.10;99.90;;;;;;7368126;19;20607;-61
2023/12/02 09:31:01;;;;;;;40.15;25.40;;;0.20;99.90;;;;;;7373819;19;20105;-62
2023/12/02 09:33:28;;;;;;;41.75;25.70;;;0.30;99.90;;;;;;7373898;19;20086;-62
2023/12/02 09:35:59;;;;;;;41.97;25.95;;;0.30;99.90;;;;;;7377171;19;20022;-62
2023/12/02 09:38:27;;;;;;;38.22;24.80;;;0.50;99.90;;;;;;7377012;19;20454;-62
2023/12/02 09:41:13;;;;;;;42.05;25.17;;;0.50;99.90;;;;;;7376472;19;20129;-62
2023/12/02 09:43:48;;;;;;;42.58;23.95;;;0.80;99.90;;;;;;7375512;19;20014;-61
2023/12/02 09:46:31;;;;;;;41.85;26.13;;;0.90;99.90;;;;;;7375722;19;20874;-63
2023/12/02 09:49:41;;;;;;;37.70;25.38;;;1.00;99.90;;;;;;7372681;19;20834;-63
2023/12/02 09:52:10;;;;;;;40.90;26.05;;;1.00;99.90;;;;;;7374989;19;20327;-62
2023/12/02 09:54:55;;;;;;;37.53;24.25;;;1.10;99.90;;;;;;7372358;19;20090;-63
2023/12/02 09:57:46;;;;;;;39.08;25.33;;;1.00;99.90;;;;;;7376218;19;20600;-62
2023/12/02 10:00:26;;;;;;;38.10;26.10;;;1.20;99.90;;;;;;7377288;19;20023;-62
2023/12/02 10:03:07;;;;;;;37.17;24.95;;;1.40;99.90;;;;;;7379271;19;20018;-62
2023/12/02 10:05:52;;;;;;;40.03;25.58;;;1.40;99.90;;;;;;7375736;19;20712;-62
2023/12/02 10:09:00;;;;;;;39.45;26.02;;;1.40;99.90;;;;;;7372958;19;20019;-62
2023/12/02 10:11:29;;;;;;;41.45;27.88;;;1.60;99.90;;;;;;7373921;19;20022;-62
2023/12/02 10:14:00;;;;;;;43.42;26.58;;;1.50;99.90;;;;;;7375547;19;20108;-62
2023/12/02 10:16:32;;;;;;;42.92;27.20;;;1.60;99.90;;;;;;7376451;19;20018;-62
2023/12/02 10:19:00;;;;;;;43.28;27.02;;;1.60;99.90;;;;;;7376595;19;20023;-62
2023/12/02 10:21:31;;;;;;;40.58;27.83;;;1.70;99.90;;;;;;7371215;19;20019;-62
2023/12/02 10:24:08;;;;;;;44.43;29.37;;;1.70;99.90;;;;;;7369728;19;20041;-62
2023/12/02 10:26:49;;;;;;;45.88;28.23;;;1.70;99.90;;;;;;7373720;19;20971;-65
2023/12/02 10:29:18;;;;;;;40.17;26.15;;;1.90;99.90;;;;;;7373625;19;20949;-63
2023/12/02 10:32:01;;;;;;;44.17;27.60;;;2.10;99.90;;;;;;7374671;19;20026;-62
2023/12/02 10:34:42;;;;;;;37.15;25.52;;;2.20;99.90;;;;;;7374855;19;20824;-62
2023/12/02 10:37:11;;;;;;;39.38;26.45;;;2.50;99.90;;;;;;7375300;19;20022;-62
2023/12/02 10:39:43;;;;;;;42.40;27.70;;;2.70;99.90;;;;;;7373910;19;20018;-63
2023/12/02 10:42:29;;;;;;;39.25;26.63;;;2.70;99.90;;;;;;7377705;19;20714;-62
2023/12/02 10:45:08;;;;;;;37.25;26.45;;;2.80;99.90;;;;;;7376148;19;20018;-59
2023/12/02 10:47:35;;;;;;;39.88;25.17;;;3.10;99.90;;;;;;7374915;19;20018;-61
2023/12/02 10:50:03;;;;;;;33.65;23.65;;;3.10;99.90;;;;;;7370971;19;20026;-60
2023/12/02 10:52:31;;;;;;;36.15;24.85;;;3.60;99.90;;;;;;7372393;19;20430;-60
2023/12/02 10:55:01;;;;;;;35.80;25.08;;;4.00;99.90;;;;;;7371250;19;20577;-60
2023/12/02 10:57:28;;;;;;;38.47;25.52;;;4.40;99.90;;;;;;7371967;19;20045;-60
2023/12/02 11:00:16;;;;;;;35.90;24.17;;;4.30;99.90;;;;;;7372026;19;20018;-60
2023/12/02 11:03:02;;;;;;;34.22;24.85;;;4.10;99.90;;;;;;7373079;19;20021;-59
2023/12/02 11:05:37;;;;;;;34.33;23.85;;;4.00;99.90;;;;;;7372180;19;20034;-61
2023/12/02 11:08:12;;;;;;;33.00;24.17;;;4.10;99.90;;;;;;7372392;19;20339;-61
2023/12/02 11:10:51;;;;;;;34.47;24.38;;;4.40;99.90;;;;;;7376206;19;20019;-61
2023/12/02 11:13:26;;;;;;;34.20;24.70;;;4.50;99.90;;;;;;7374083;19;20021;-61
2023/12/02 11:16:20;;;;;;;33.33;23.92;;;4.50;99.90;;;;;;7374980;19;20499;-60
2023/12/02 11:19:11;;;;;;;33.85;24.27;;;4.30;99.90;;;;;;7373504;19;20014;-61
2023/12/02 11:22:12;;;;;;;34.20;24.15;;;4.40;99.90;;;;;;7371936;19;20758;-61
2023/12/02 11:25:04;;;;;;;31.70;23.95;;;4.30;99.90;;;;;;7372055;19;20033;-61
2023/12/02 11:27:53;;;;;;;33.90;23.38;;;4.10;99.90;;;;;;7369969;19;20025;-60
2023/12/02 11:30:45;;;;;;;31.45;22.75;;;4.20;99.90;;;;;;7370097;19;20022;-61
2023/12/02 11:33:45;;;;;;;33.90;24.70;;;3.90;99.90;;;;;;7371346;19;20015;-61
2023/12/02 11:36:22;;;;;;;35.92;24.25;;;4.10;99.90;;;;;;7381741;19;20045;-61
2023/12/02 11:39:23;;;;;;;30.05;21.25;;;4.80;99.90;;;;;;7381292;19;20017;-61
2023/12/02 11:41:55;;;;;;;32.60;22.42;;;5.10;99.90;;;;;;7377193;19;20037;-61
2023/12/02 11:44:25;;;;;;;32.92;24.02;;;5.00;99.90;;;;;;7380581;19;20039;-60
2023/12/02 11:46:54;;;;;;;29.73;21.88;;;5.20;99.90;;;;;;7381062;19;20389;-64
2023/12/02 11:49:42;;;;;;;32.28;22.85;;;5.20;99.90;;;;;;7377304;19;20022;-61
2023/12/02 11:52:57;;;;;;;31.10;22.35;;;5.40;99.90;;;;;;7379777;19;20708;-61
2023/12/02 11:55:42;;;;;;;31.85;23.33;;;5.40;99.90;;;;;;7378503;19;20065;-61
2023/12/02 11:58:12;;;;;;;31.80;22.67;;;5.30;99.90;;;;;;7377598;19;20025;-61
2023/12/02 12:01:03;;;;;;;32.90;23.58;;;5.00;99.90;;;;;;7380521;19;20031;-61
2023/12/02 12:03:36;;;;;;;30.98;22.13;;;4.70;99.90;;;;;;7381522;19;20022;-60
2023/12/02 12:06:32;;;;;;;37.00;24.85;;;4.30;99.90;;;;;;7381818;19;20031;-60
2023/12/02 12:09:21;;;;;;;31.40;23.05;;;4.20;99.90;;;;;;7376269;19;20037;-60
2023/12/02 12:11:51;;;;;;;34.80;22.75;;;3.90;99.90;;;;;;7381816;19;20526;-61
2023/12/02 12:14:19;;;;;;;34.40;23.10;;;3.70;99.90;;;;;;7378185;19;20019;-61
2023/12/02 12:16:48;;;;;;;33.92;23.85;;;3.50;99.90;;;;;;7380101;19;20025;-60
2023/12/02 12:19:14;;;;;;;34.63;23.50;;;3.40;99.90;;;;;;7379507;19;20646;-61
2023/12/02 12:21:42;;;;;;;34.50;22.27;;;3.20;99.90;;;;;;7375926;19;20814;-61
2023/12/02 12:24:09;;;;;;;34.08;24.35;;;3.10;99.90;;;;;;7377698;19;20050;-61
2023/12/02 12:26:35;;;;;;;37.28;23.83;;;3.00;99.90;;;;;;7376051;19;20557;-61
2023/12/02 12:29:04;;;;;;;37.13;23.40;;;3.00;99.90;;;;;;7374728;19;20015;-61
2023/12/02 12:31:31;;;;;;;35.30;23.92;;;2.90;99.90;;;;;;7379079;19;20026;-61
2023/12/02 12:34:00;;;;;;;35.75;23.88;;;2.90;99.90;;;;;;7378145;19;20034;-60
2023/12/02 12:36:28;;;;;;;33.47;22.67;;;2.80;99.90;;;;;;7379127;19;20031;-61
2023/12/02 12:38:59;;;;;;;34.65;23.02;;;2.80;99.90;;;;;;7375833;19;20090;-61
2023/12/02 12:41:27;;;;;;;37.92;22.90;;;2.80;99.90;;;;;;7376852;19;20038;-61
2023/12/02 12:43:56;;;;;;;37.08;22.42;;;2.80;99.90;;;;;;7379859;19;20022;-60